createdAt,value
2018-02-22T00:01:23.183Z,-3.90
2018-02-22T00:03:51.545Z,-4.10
2018-02-22T00:06:19.134Z,-4.10
2018-02-22T00:08:46.728Z,-4.10
2018-02-22T00:11:14.336Z,-4.10
2018-02-22T00:13:41.929Z,-3.90
2018-02-22T00:16:09.530Z,-3.80
2018-02-22T00:18:37.901Z,-3.60
2018-02-22T00:21:05.476Z,-3.60
2018-02-22T00:23:33.069Z,-3.40
2018-02-22T00:26:01.417Z,-3.20
2018-02-22T00:28:29.781Z,-3.10
2018-02-22T00:30:57.365Z,-3.10
2018-02-22T00:33:24.984Z,-3.10
2018-02-22T00:35:52.565Z,-3.00
2018-02-22T00:38:20.932Z,-3.00
2018-02-22T00:40:48.530Z,-3.00
2018-02-22T00:43:16.882Z,-3.00
2018-02-22T00:45:44.477Z,-3.00
2018-02-22T00:48:12.056Z,-3.00
2018-02-22T00:50:39.654Z,-3.10
2018-02-22T00:53:07.238Z,-3.10
2018-02-22T00:55:34.838Z,-3.20
2018-02-22T00:58:03.190Z,-3.30
2018-02-22T01:00:30.825Z,-3.30
2018-02-22T01:02:58.398Z,-3.30
2018-02-22T01:05:26.043Z,-3.30
2018-02-22T01:07:53.620Z,-3.40
2018-02-22T01:10:21.245Z,-3.40
2018-02-22T01:12:49.589Z,-3.50
2018-02-22T01:15:17.168Z,-3.50
2018-02-22T01:17:44.769Z,-3.50
2018-02-22T01:20:13.115Z,-3.50
2018-02-22T01:22:40.736Z,-3.60
2018-02-22T01:25:09.077Z,-3.60
2018-02-22T01:27:36.675Z,-3.60
2018-02-22T01:30:04.249Z,-3.60
2018-02-22T01:32:31.844Z,-3.60
2018-02-22T01:35:00.192Z,-3.80
2018-02-22T01:37:27.784Z,-3.80
2018-02-22T01:39:55.360Z,-3.80
2018-02-22T01:42:22.970Z,-3.80
2018-02-22T01:44:50.550Z,-3.90
2018-02-22T01:47:18.141Z,-3.90
2018-02-22T01:49:45.736Z,-4.00
2018-02-22T01:52:13.364Z,-4.00
2018-02-22T01:54:40.980Z,-4.00
2018-02-22T01:57:08.557Z,-4.00
2018-02-22T01:59:36.157Z,-3.90
2018-02-22T02:02:04.509Z,-3.90
2018-02-22T02:04:32.104Z,-3.90
2018-02-22T02:06:59.680Z,-3.90
2018-02-22T02:09:27.281Z,-3.90
2018-02-22T02:11:54.864Z,-3.90
2018-02-22T02:14:22.601Z,-3.90
2018-02-22T02:16:50.960Z,-3.90
2018-02-22T02:19:18.568Z,-3.90
2018-02-22T02:21:46.926Z,-3.80
2018-02-22T02:24:14.528Z,-3.80
2018-02-22T02:26:42.104Z,-3.90
2018-02-22T02:29:09.727Z,-3.90
2018-02-22T02:31:37.312Z,-3.90
2018-02-22T02:34:04.892Z,-3.90
2018-02-22T02:36:32.504Z,-3.90
2018-02-22T02:39:00.847Z,-3.90
2018-02-22T02:41:28.440Z,-3.90
2018-02-22T02:43:56.043Z,-3.90
2018-02-22T02:46:24.410Z,-4.00
2018-02-22T02:48:51.989Z,-4.00
2018-02-22T02:51:20.375Z,-4.10
2018-02-22T02:53:48.168Z,-4.10
2018-02-22T02:56:16.547Z,-4.20
2018-02-22T02:58:44.908Z,-4.30
2018-02-22T03:01:12.513Z,-4.30
2018-02-22T03:03:40.894Z,-4.20
2018-02-22T03:06:08.514Z,-4.30
2018-02-22T03:08:36.106Z,-4.10
2018-02-22T03:11:03.697Z,-4.10
2018-02-22T03:13:31.306Z,-4.10
2018-02-22T03:15:59.666Z,-4.00
2018-02-22T03:18:27.269Z,-4.00
2018-02-22T03:20:55.624Z,-3.90
2018-02-22T03:23:23.234Z,-4.00
2018-02-22T03:25:51.589Z,-3.90
2018-02-22T03:28:20.165Z,-3.90
2018-02-22T03:30:47.757Z,-3.90
2018-02-22T03:33:15.372Z,-3.80
2018-02-22T03:35:43.720Z,-3.60
2018-02-22T03:38:11.324Z,-3.60
2018-02-22T03:40:39.668Z,-3.60
2018-02-22T03:43:07.273Z,-3.60
2018-02-22T03:45:34.859Z,-3.50
2018-02-22T03:48:03.248Z,-3.50
2018-02-22T03:50:31.592Z,-3.50
2018-02-22T03:52:59.185Z,-3.50
2018-02-22T03:55:26.804Z,-3.50
2018-02-22T03:57:54.382Z,-3.40
2018-02-22T04:00:21.988Z,-3.40
2018-02-22T04:02:49.577Z,-3.40
2018-02-22T04:05:17.185Z,-3.40
2018-02-22T04:07:44.776Z,-3.40
2018-02-22T04:10:12.381Z,-3.30
2018-02-22T04:12:39.977Z,-3.30
2018-02-22T04:15:07.599Z,-3.30
2018-02-22T04:17:35.244Z,-3.40
2018-02-22T04:20:03.603Z,-3.40
2018-02-22T04:22:31.208Z,-3.40
2018-02-22T04:24:59.563Z,-3.30
2018-02-22T04:27:27.165Z,-3.40
2018-02-22T04:29:55.796Z,-3.40
2018-02-22T04:32:23.422Z,-3.30
2018-02-22T04:34:51.793Z,-3.30
2018-02-22T04:37:19.406Z,-3.30
2018-02-22T04:39:46.985Z,-3.40
2018-02-22T04:42:14.602Z,-3.30
2018-02-22T04:44:42.184Z,-3.40
2018-02-22T04:47:09.785Z,-3.50
2018-02-22T04:49:38.132Z,-3.50
2018-02-22T04:52:05.741Z,-3.50
2018-02-22T04:54:34.094Z,-3.60
2018-02-22T04:57:01.734Z,-3.60
2018-02-22T04:59:29.325Z,-3.70
2018-02-22T05:01:57.713Z,-3.70
2018-02-22T05:04:25.318Z,-3.70
2018-02-22T05:06:52.905Z,-3.60
2018-02-22T05:09:20.504Z,-3.70
2018-02-22T05:11:48.093Z,-3.60
2018-02-22T05:14:15.724Z,-3.60
2018-02-22T05:16:43.253Z,-3.60
2018-02-22T05:19:10.872Z,-3.50
2018-02-22T05:21:38.462Z,-3.50
2018-02-22T05:24:06.810Z,-3.50
2018-02-22T05:26:34.374Z,-3.50
2018-02-22T05:29:01.969Z,-3.50
2018-02-22T05:31:29.589Z,-3.50
2018-02-22T05:33:57.144Z,-3.40
2018-02-22T05:36:25.621Z,-3.50
2018-02-22T05:38:53.945Z,-3.50
2018-02-22T05:41:21.562Z,-3.50
2018-02-22T05:43:49.158Z,-3.50
2018-02-22T05:46:17.582Z,-3.50
2018-02-22T05:48:45.886Z,-3.50
2018-02-22T05:51:13.504Z,-3.50
2018-02-22T05:53:41.076Z,-3.60
2018-02-22T05:56:08.770Z,-3.60
2018-02-22T05:58:37.517Z,-3.50
2018-02-22T06:01:05.090Z,-3.50
2018-02-22T06:03:32.879Z,-3.50
2018-02-22T06:06:00.453Z,-3.40
2018-02-22T06:08:28.038Z,-3.50
2018-02-22T06:10:55.600Z,-3.50
2018-02-22T06:13:23.174Z,-3.50
2018-02-22T06:15:50.736Z,-3.60
2018-02-22T06:18:18.312Z,-3.60
2018-02-22T06:20:45.878Z,-3.60
2018-02-22T06:23:13.453Z,-3.60
2018-02-22T06:25:41.009Z,-3.60
2018-02-22T06:28:08.589Z,-3.60
2018-02-22T06:30:36.192Z,-3.70
2018-02-22T06:33:04.565Z,-3.60
2018-02-22T06:35:32.125Z,-3.70
2018-02-22T06:38:00.497Z,-3.70
2018-02-22T06:40:28.249Z,-3.70
2018-02-22T06:42:55.845Z,-3.70
2018-02-22T06:45:23.425Z,-3.70
2018-02-22T06:47:50.981Z,-3.70
2018-02-22T06:50:18.552Z,-3.60
2018-02-22T06:52:46.117Z,-3.60
2018-02-22T06:55:13.696Z,-3.50
2018-02-22T06:57:41.285Z,-3.50
2018-02-22T07:00:08.862Z,-3.50
2018-02-22T07:02:36.420Z,-3.50
2018-02-22T07:05:04.003Z,-3.40
2018-02-22T07:07:31.581Z,-3.40
2018-02-22T07:09:59.154Z,-3.30
2018-02-22T07:12:26.718Z,-3.20
2018-02-22T07:14:54.298Z,-3.10
2018-02-22T07:17:21.865Z,-2.90
2018-02-22T07:19:50.230Z,-2.60
2018-02-22T07:22:17.785Z,-2.60
2018-02-22T07:24:45.341Z,-2.40
2018-02-22T07:27:13.688Z,-2.10
2018-02-22T07:29:41.286Z,-2.10
2018-02-22T07:32:08.862Z,-2.00
2018-02-22T07:34:36.450Z,-1.90
2018-02-22T07:37:04.790Z,-1.80
2018-02-22T07:39:32.353Z,-1.80
2018-02-22T07:41:59.935Z,-1.60
2018-02-22T07:44:27.492Z,-1.50
2018-02-22T07:46:55.064Z,-1.30
2018-02-22T07:49:22.617Z,-1.20
2018-02-22T07:51:50.189Z,-1.10
2018-02-22T07:54:17.746Z,-1.10
2018-02-22T07:56:46.090Z,-1.00
2018-02-22T07:59:13.652Z,-1.00
2018-02-22T08:01:41.258Z,-0.90
2018-02-22T08:04:08.804Z,-0.80
2018-02-22T08:06:36.392Z,-0.70
2018-02-22T08:09:03.952Z,-0.70
2018-02-22T08:11:31.562Z,-0.70
2018-02-22T08:13:59.882Z,-0.40
2018-02-22T08:16:27.466Z,-0.40
2018-02-22T08:18:55.029Z,-0.20
2018-02-22T08:21:22.601Z,-0.10
2018-02-22T08:23:50.157Z,-0.10
2018-02-22T08:26:17.709Z,-0.10
2018-02-22T08:28:46.051Z,0.10
2018-02-22T08:31:13.610Z,0.10
2018-02-22T08:33:41.209Z,0.20
2018-02-22T08:36:08.761Z,0.20
2018-02-22T08:38:36.336Z,0.30
2018-02-22T08:41:03.891Z,0.30
2018-02-22T08:43:31.476Z,0.40
2018-02-22T08:45:59.029Z,0.50
2018-02-22T08:48:26.592Z,0.70
2018-02-22T08:50:54.145Z,0.90
2018-02-22T08:53:22.486Z,1.10
2018-02-22T08:55:50.857Z,1.10
2018-02-22T08:58:18.434Z,1.20
2018-02-22T09:00:45.990Z,1.30
2018-02-22T09:03:13.599Z,1.30
2018-02-22T09:05:42.858Z,1.20
2018-02-22T09:08:10.417Z,1.10
2018-02-22T09:10:38.761Z,0.90
2018-02-22T09:13:06.334Z,0.90
2018-02-22T09:15:33.903Z,0.90
2018-02-22T09:18:01.477Z,1.00
2018-02-22T09:20:29.054Z,1.00
2018-02-22T09:22:56.632Z,1.20
2018-02-22T09:25:24.210Z,1.30
2018-02-22T09:27:51.767Z,1.40
2018-02-22T09:30:19.348Z,1.60
2018-02-22T09:32:46.943Z,1.60
2018-02-22T09:35:14.518Z,1.80
2018-02-22T09:37:42.069Z,1.90
2018-02-22T09:40:09.642Z,2.00
2018-02-22T09:42:37.201Z,2.00
2018-02-22T09:45:04.776Z,2.10
2018-02-22T09:47:32.338Z,2.10
2018-02-22T09:49:59.911Z,2.50
2018-02-22T09:52:27.464Z,2.90
2018-02-22T09:54:55.038Z,3.00
2018-02-22T09:57:22.598Z,3.00
2018-02-22T09:59:50.193Z,3.00
2018-02-22T10:02:17.750Z,3.00
2018-02-22T10:04:45.304Z,3.10
2018-02-22T10:07:13.638Z,3.10
2018-02-22T10:09:41.181Z,3.00
2018-02-22T10:12:08.760Z,3.10
2018-02-22T10:14:36.349Z,3.10
2018-02-22T10:17:03.925Z,3.00
2018-02-22T10:19:31.521Z,3.10
2018-02-22T10:21:59.100Z,3.00
2018-02-22T10:24:26.698Z,3.00
2018-02-22T10:26:54.290Z,2.90
2018-02-22T10:29:22.611Z,2.80
2018-02-22T10:31:50.173Z,2.80
2018-02-22T10:34:17.734Z,2.80
2018-02-22T10:36:45.313Z,2.90
2018-02-22T10:39:12.869Z,2.70
2018-02-22T10:41:40.466Z,2.70
2018-02-22T10:44:08.013Z,2.70
2018-02-22T10:46:35.562Z,2.80
2018-02-22T10:49:03.138Z,2.90
2018-02-22T10:51:30.693Z,2.90
2018-02-22T10:53:59.035Z,2.70
2018-02-22T10:56:26.617Z,2.70
2018-02-22T10:58:54.194Z,2.50
2018-02-22T11:01:27.481Z,2.40
2018-02-22T11:03:55.066Z,2.40
2018-02-22T11:06:22.620Z,2.40
2018-02-22T11:08:50.194Z,2.30
2018-02-22T11:11:17.749Z,2.40
2018-02-22T11:13:45.318Z,2.40
2018-02-22T11:16:12.865Z,2.50
2018-02-22T11:18:41.210Z,2.50
2018-02-22T11:21:08.763Z,2.50
2018-02-22T11:23:36.330Z,2.50
2018-02-22T11:26:03.882Z,2.60
2018-02-22T11:28:31.473Z,2.70
2018-02-22T11:30:59.029Z,2.70
2018-02-22T11:33:26.590Z,2.60
2018-02-22T11:35:54.935Z,2.70
2018-02-22T11:38:22.489Z,2.70
2018-02-22T11:40:50.057Z,2.80
2018-02-22T11:43:17.601Z,2.80
2018-02-22T11:45:45.168Z,3.00
2018-02-22T11:48:12.717Z,3.20
2018-02-22T11:50:40.285Z,3.30
2018-02-22T11:53:07.838Z,3.20
2018-02-22T11:55:35.401Z,3.00
2018-02-22T11:58:02.954Z,3.00
2018-02-22T12:00:30.520Z,3.00
2018-02-22T12:02:58.064Z,2.90
2018-02-22T12:05:26.399Z,2.80
2018-02-22T12:07:53.960Z,2.80
2018-02-22T12:10:21.565Z,2.70
2018-02-22T12:12:49.109Z,2.50
2018-02-22T12:15:16.657Z,2.50
2018-02-22T12:17:44.218Z,2.60
2018-02-22T12:20:12.526Z,2.60
2018-02-22T12:22:40.096Z,2.60
2018-02-22T12:25:07.658Z,2.70
2018-02-22T12:27:35.233Z,2.70
2018-02-22T12:30:02.797Z,2.70
2018-02-22T12:32:30.373Z,2.70
2018-02-22T12:34:57.930Z,2.80
2018-02-22T12:37:26.266Z,2.80
2018-02-22T12:39:53.809Z,2.80
2018-02-22T12:42:21.379Z,2.80
2018-02-22T12:44:48.940Z,2.60
2018-02-22T12:47:16.510Z,2.50
2018-02-22T12:49:44.840Z,2.40
2018-02-22T12:52:12.393Z,2.40
2018-02-22T12:54:39.969Z,2.20
2018-02-22T12:57:07.517Z,2.20
2018-02-22T12:59:35.850Z,1.80
2018-02-22T13:02:03.402Z,1.80
2018-02-22T13:04:30.994Z,1.80
2018-02-22T13:06:58.550Z,1.70
2018-02-22T13:09:26.117Z,1.70
2018-02-22T13:11:53.681Z,1.70
2018-02-22T13:14:21.255Z,1.60
2018-02-22T13:16:48.806Z,1.60
2018-02-22T13:19:17.144Z,1.50
2018-02-22T13:21:44.694Z,1.50
2018-02-22T13:24:12.266Z,1.50
2018-02-22T13:26:39.818Z,1.40
2018-02-22T13:29:07.398Z,1.40
2018-02-22T13:31:34.953Z,1.30
2018-02-22T13:34:15.070Z,1.30
2018-02-22T13:36:42.620Z,1.20
2018-02-22T13:39:10.997Z,1.20
2018-02-22T13:41:38.561Z,1.20
2018-02-22T13:44:18.816Z,1.10
2018-02-22T13:46:47.145Z,1.00
2018-02-22T13:49:27.475Z,1.00
2018-02-22T13:51:55.013Z,1.00
2018-02-22T13:54:22.585Z,1.00
2018-02-22T13:57:01.902Z,1.00
2018-02-22T13:59:29.500Z,1.00
2018-02-22T14:02:08.833Z,1.10
2018-02-22T14:04:36.429Z,1.10
2018-02-22T14:07:03.989Z,1.10
2018-02-22T14:09:31.556Z,1.20
2018-02-22T14:11:59.193Z,1.20
2018-02-22T14:14:26.754Z,1.20
2018-02-22T14:16:55.089Z,1.20
2018-02-22T14:19:22.645Z,1.20
2018-02-22T14:21:50.216Z,1.20
2018-02-22T14:24:17.771Z,1.20
2018-02-22T14:26:46.113Z,1.20
2018-02-22T14:29:13.669Z,1.20
2018-02-22T14:31:41.294Z,1.20
2018-02-22T14:34:08.828Z,1.20
2018-02-22T14:36:36.608Z,1.20
2018-02-22T14:39:04.294Z,1.20
2018-02-22T14:41:31.882Z,1.20
2018-02-22T14:44:00.263Z,1.20
2018-02-22T14:46:28.007Z,1.20
2018-02-22T14:48:55.572Z,1.20
2018-02-22T14:51:23.145Z,1.20
2018-02-22T14:53:50.694Z,1.20
2018-02-22T14:56:18.267Z,1.20
2018-02-22T14:58:45.817Z,1.20
2018-02-22T15:01:13.393Z,1.10
2018-02-22T15:03:41.712Z,1.00
2018-02-22T15:06:09.313Z,1.00
2018-02-22T15:08:36.912Z,1.00
2018-02-22T15:11:04.494Z,0.90
2018-02-22T15:13:32.058Z,0.90
2018-02-22T15:15:59.609Z,0.80
2018-02-22T15:18:27.177Z,0.80
2018-02-22T15:20:54.737Z,0.80
2018-02-22T15:23:22.313Z,0.70
2018-02-22T15:25:49.861Z,0.70
2018-02-22T15:28:17.457Z,0.70
2018-02-22T15:30:45.022Z,0.60
2018-02-22T15:33:12.600Z,0.70
2018-02-22T15:35:40.163Z,0.60
2018-02-22T15:38:07.729Z,0.60
2018-02-22T15:40:35.280Z,0.60
2018-02-22T15:43:02.850Z,0.60
2018-02-22T15:45:30.401Z,0.60
2018-02-22T15:47:58.767Z,0.50
2018-02-22T15:50:26.339Z,0.50
2018-02-22T15:52:53.903Z,0.50
2018-02-22T15:55:21.475Z,0.50
2018-02-22T15:57:49.029Z,0.50
2018-02-22T16:00:16.620Z,0.40
2018-02-22T16:02:44.197Z,0.40
2018-02-22T16:05:11.773Z,0.40
2018-02-22T16:07:39.320Z,0.30
2018-02-22T16:10:06.936Z,0.30
2018-02-22T16:12:35.261Z,0.30
2018-02-22T16:15:03.795Z,0.30
2018-02-22T16:17:31.374Z,0.20
2018-02-22T16:19:58.935Z,0.30
2018-02-22T16:22:26.500Z,0.20
2018-02-22T16:24:54.072Z,0.20
2018-02-22T16:27:21.626Z,0.20
2018-02-22T16:29:49.246Z,0.20
2018-02-22T16:32:16.809Z,0.10
2018-02-22T16:34:44.401Z,0.10
2018-02-22T16:37:12.722Z,0.00
2018-02-22T16:39:40.284Z,0.00
2018-02-22T16:42:07.858Z,0.00
2018-02-22T16:44:35.410Z,0.00
2018-02-22T16:47:02.997Z,0.00
2018-02-22T16:49:30.573Z,0.00
2018-02-22T16:51:58.148Z,-0.10
2018-02-22T16:54:25.723Z,-0.10
2018-02-22T16:56:53.308Z,-0.20
2018-02-22T16:59:20.861Z,-0.20
2018-02-22T17:01:48.440Z,-0.30
2018-02-22T17:04:16.009Z,-0.30
2018-02-22T17:06:43.601Z,-0.30
2018-02-22T17:09:11.162Z,-0.40
2018-02-22T17:11:38.742Z,-0.40
2018-02-22T17:14:06.295Z,-0.40
2018-02-22T17:16:33.870Z,-0.40
2018-02-22T17:19:01.469Z,-0.40
2018-02-22T17:21:29.050Z,-0.40
2018-02-22T17:23:56.609Z,-0.30
2018-02-22T17:26:29.847Z,-0.30
2018-02-22T17:29:02.991Z,-0.20
2018-02-22T17:31:36.186Z,-0.20
2018-02-22T17:34:04.506Z,-0.30
2018-02-22T17:36:47.762Z,-0.30
2018-02-22T17:39:21.218Z,-0.30
2018-02-22T17:41:48.842Z,-0.30
2018-02-22T17:44:16.369Z,-0.30
2018-02-22T17:46:44.009Z,-0.30
2018-02-22T17:49:11.614Z,-0.30
2018-02-22T17:51:39.969Z,-0.30
2018-02-22T17:54:07.553Z,-0.30
2018-02-22T17:56:35.886Z,-0.30
2018-02-22T17:59:03.458Z,-0.30
2018-02-22T18:01:31.109Z,-0.30
2018-02-22T18:03:58.688Z,-0.30
2018-02-22T18:06:26.470Z,-0.40
2018-02-22T18:08:54.057Z,-0.40
2018-02-22T18:11:21.616Z,-0.40
2018-02-22T18:13:49.227Z,-0.40
2018-02-22T18:16:16.898Z,-0.40
2018-02-22T18:18:44.469Z,-0.40
2018-02-22T18:21:12.037Z,-0.40
2018-02-22T18:23:39.616Z,-0.40
2018-02-22T18:26:07.193Z,-0.40
2018-02-22T18:28:34.768Z,-0.40
2018-02-22T18:31:03.093Z,-0.50
2018-02-22T18:33:31.433Z,-0.50
2018-02-22T18:35:58.998Z,-0.50
2018-02-22T18:38:26.631Z,-0.60
2018-02-22T18:41:00.012Z,-0.60
2018-02-22T18:43:33.961Z,-0.70
2018-02-22T18:46:01.530Z,-0.70
2018-02-22T18:48:29.143Z,-0.60
2018-02-22T18:50:56.701Z,-0.70
2018-02-22T18:53:24.294Z,-0.70
2018-02-22T18:55:51.905Z,-0.60
2018-02-22T18:58:21.241Z,-0.60
2018-02-22T19:00:49.874Z,-0.60
2018-02-22T19:03:17.442Z,-0.60
2018-02-22T19:05:45.098Z,-0.60
2018-02-22T19:08:12.697Z,-0.60
2018-02-22T19:10:40.314Z,-0.60
2018-02-22T19:13:08.690Z,-0.60
2018-02-22T19:15:37.062Z,-0.60
2018-02-22T19:18:04.777Z,-0.60
2018-02-22T19:20:32.516Z,-0.50
2018-02-22T19:23:01.000Z,-0.50
2018-02-22T19:25:28.619Z,-0.50
2018-02-22T19:27:56.950Z,-0.50
2018-02-22T19:30:24.527Z,-0.50
2018-02-22T19:32:52.126Z,-0.50
2018-02-22T19:35:19.686Z,-0.60
2018-02-22T19:37:47.330Z,-0.50
2018-02-22T19:40:14.896Z,-0.50
2018-02-22T19:42:42.539Z,-0.60
2018-02-22T19:45:10.125Z,-0.60
2018-02-22T19:47:37.723Z,-0.70
2018-02-22T19:50:05.319Z,-0.70
2018-02-22T19:52:33.735Z,-0.80
2018-02-22T19:55:02.114Z,-0.80
2018-02-22T19:57:29.911Z,-0.90
2018-02-22T19:59:57.630Z,-0.80
2018-02-22T20:02:25.497Z,-0.90
2018-02-22T20:04:53.279Z,-0.90
2018-02-22T20:07:21.189Z,-0.90
2018-02-22T20:09:49.726Z,-0.90
2018-02-22T20:12:17.464Z,-1.00
2018-02-22T20:14:45.249Z,-0.90
2018-02-22T20:17:13.076Z,-0.90
2018-02-22T20:19:40.828Z,-0.90
2018-02-22T20:22:08.567Z,-0.90
2018-02-22T20:24:38.829Z,-1.00
2018-02-22T20:27:06.779Z,-1.00
2018-02-22T20:29:34.455Z,-1.00
2018-02-22T20:32:02.119Z,-1.00
2018-02-22T20:34:29.786Z,-1.10
2018-02-22T20:36:57.422Z,-1.10
2018-02-22T20:39:25.036Z,-1.10
2018-02-22T20:41:52.630Z,-1.20
2018-02-22T20:44:20.202Z,-1.20
2018-02-22T20:46:49.305Z,-1.30
2018-02-22T20:49:16.957Z,-1.30
2018-02-22T20:51:55.154Z,-1.30
2018-02-22T20:54:22.752Z,-1.40
2018-02-22T20:56:50.418Z,-1.50
2018-02-22T20:59:18.054Z,-1.50
2018-02-22T21:01:45.641Z,-1.50
2018-02-22T21:04:13.466Z,-1.50
2018-02-22T21:06:41.026Z,-1.50
2018-02-22T21:09:08.686Z,-1.50
2018-02-22T21:11:36.314Z,-1.50
2018-02-22T21:14:04.735Z,-1.40
2018-02-22T21:16:32.852Z,-1.50
2018-02-22T21:19:00.455Z,-1.40
2018-02-22T21:21:28.810Z,-1.40
2018-02-22T21:23:56.404Z,-1.40
2018-02-22T21:26:24.037Z,-1.40
2018-02-22T21:28:51.674Z,-1.40
2018-02-22T21:31:20.070Z,-1.30
2018-02-22T21:33:47.694Z,-1.40
2018-02-22T21:36:15.290Z,-1.30
2018-02-22T21:38:43.587Z,-1.40
2018-02-22T21:41:12.183Z,-1.40
2018-02-22T21:43:41.769Z,-1.40
2018-02-22T21:46:09.392Z,-1.40
2018-02-22T21:48:36.999Z,-1.50
2018-02-22T21:51:04.572Z,-1.50
2018-02-22T21:53:32.127Z,-1.50
2018-02-22T21:56:00.466Z,-1.60
2018-02-22T21:58:28.019Z,-1.60
2018-02-22T22:00:57.761Z,-1.60
2018-02-22T22:03:25.311Z,-1.60
2018-02-22T22:05:52.914Z,-1.70
2018-02-22T22:08:20.461Z,-1.70
2018-02-22T22:10:48.058Z,-1.70
2018-02-22T22:13:15.617Z,-1.70
2018-02-22T22:15:43.194Z,-1.70
2018-02-22T22:18:10.754Z,-1.70
2018-02-22T22:20:38.313Z,-1.70
2018-02-22T22:23:05.894Z,-1.80
2018-02-22T22:25:33.452Z,-1.90
2018-02-22T22:28:01.070Z,-2.00
2018-02-22T22:30:28.627Z,-2.10
2018-02-22T22:32:56.198Z,-2.10
2018-02-22T22:35:23.781Z,-2.10
2018-02-22T22:37:51.442Z,-2.20
2018-02-22T22:40:19.071Z,-2.30
2018-02-22T22:42:46.661Z,-2.30
2018-02-22T22:45:14.308Z,-2.40
2018-02-22T22:47:42.683Z,-2.50
2018-02-22T22:50:10.294Z,-2.50
2018-02-22T22:52:37.882Z,-2.60
2018-02-22T22:55:05.483Z,-2.60
2018-02-22T22:57:33.822Z,-2.80
2018-02-22T23:00:01.469Z,-2.80
2018-02-22T23:02:29.095Z,-2.80
2018-02-22T23:04:56.677Z,-3.00
2018-02-22T23:07:24.233Z,-3.00
2018-02-22T23:09:51.993Z,-3.00
2018-02-22T23:12:19.548Z,-3.00
2018-02-22T23:14:47.963Z,-3.10
2018-02-22T23:17:15.605Z,-3.10
2018-02-22T23:19:43.391Z,-3.10
2018-02-22T23:22:11.741Z,-3.20
2018-02-22T23:24:39.432Z,-3.20
2018-02-22T23:27:07.036Z,-3.30
2018-02-22T23:29:34.767Z,-3.30
2018-02-22T23:32:02.526Z,-3.40
2018-02-22T23:34:30.249Z,-3.40
2018-02-22T23:36:57.881Z,-3.50
2018-02-22T23:39:25.498Z,-3.50
2018-02-22T23:42:08.745Z,-3.60
2018-02-22T23:44:36.463Z,-3.60
2018-02-22T23:47:04.187Z,-3.60
2018-02-22T23:49:32.731Z,-3.70
2018-02-22T23:52:00.317Z,-3.70
2018-02-22T23:54:28.050Z,-3.70
2018-02-22T23:56:55.671Z,-3.70
2018-02-22T23:59:23.477Z,-3.70
